sensor_id;sensor_type;location;lat;lon;timestamp;P1;durP1;ratioP1;P2;durP2;ratioP2
12719;SDS011;6424;48.520;11.228;2024-02-28T00:02:01;27.83;;;19.83;;
12719;SDS011;6424;48.520;11.228;2024-02-28T00:04:45;26.07;;;19.03;;
12719;SDS011;6424;48.520;11.228;2024-02-28T00:07:29;28.50;;;19.90;;
12719;SDS011;6424;48.520;11.228;2024-02-28T00:10:14;24.93;;;19.70;;
12719;SDS011;6424;48.520;11.228;2024-02-28T00:12:59;26.40;;;20.10;;
12719;SDS011;6424;48.520;11.228;2024-02-28T00:15:43;26.77;;;19.90;;
12719;SDS011;6424;48.520;11.228;2024-02-28T00:18:28;31.93;;;21.97;;
12719;SDS011;6424;48.520;11.228;2024-02-28T00:21:14;29.33;;;21.13;;
12719;SDS011;6424;48.520;11.228;2024-02-28T00:23:58;29.03;;;21.27;;
12719;SDS011;6424;48.520;11.228;2024-02-28T00:26:43;27.33;;;20.87;;
12719;SDS011;6424;48.520;11.228;2024-02-28T00:29:27;29.80;;;21.37;;
12719;SDS011;6424;48.520;11.228;2024-02-28T00:32:11;32.17;;;21.10;;
12719;SDS011;6424;48.520;11.228;2024-02-28T00:34:55;30.33;;;21.10;;
12719;SDS011;6424;48.520;11.228;2024-02-28T00:37:40;29.10;;;21.20;;
12719;SDS011;6424;48.520;11.228;2024-02-28T00:40:24;27.57;;;20.53;;
12719;SDS011;6424;48.520;11.228;2024-02-28T00:43:09;28.80;;;20.80;;
12719;SDS011;6424;48.520;11.228;2024-02-28T00:45:53;26.07;;;19.73;;
12719;SDS011;6424;48.520;11.228;2024-02-28T00:48:39;27.77;;;20.47;;
12719;SDS011;6424;48.520;11.228;2024-02-28T00:51:23;32.90;;;20.87;;
12719;SDS011;6424;48.520;11.228;2024-02-28T00:54:08;32.60;;;21.37;;
12719;SDS011;6424;48.520;11.228;2024-02-28T00:56:52;28.07;;;20.20;;
12719;SDS011;6424;48.520;11.228;2024-02-28T00:59:36;25.77;;;20.23;;
12719;SDS011;6424;48.520;11.228;2024-02-28T01:02:20;31.80;;;21.10;;
12719;SDS011;6424;48.520;11.228;2024-02-28T01:05:05;26.90;;;20.20;;
12719;SDS011;6424;48.520;11.228;2024-02-28T01:07:50;27.13;;;20.60;;
12719;SDS011;6424;48.520;11.228;2024-02-28T01:10:34;24.30;;;18.90;;
12719;SDS011;6424;48.520;11.228;2024-02-28T01:13:20;24.53;;;18.40;;
12719;SDS011;6424;48.520;11.228;2024-02-28T01:16:04;27.67;;;19.93;;
12719;SDS011;6424;48.520;11.228;2024-02-28T01:18:49;24.87;;;19.70;;
12719;SDS011;6424;48.520;11.228;2024-02-28T01:21:34;29.37;;;20.47;;
12719;SDS011;6424;48.520;11.228;2024-02-28T01:24:18;25.10;;;18.53;;
12719;SDS011;6424;48.520;11.228;2024-02-28T01:27:02;31.37;;;21.97;;
12719;SDS011;6424;48.520;11.228;2024-02-28T01:29:46;28.90;;;21.17;;
12719;SDS011;6424;48.520;11.228;2024-02-28T01:32:30;32.30;;;21.90;;
12719;SDS011;6424;48.520;11.228;2024-02-28T01:35:15;29.07;;;21.63;;
12719;SDS011;6424;48.520;11.228;2024-02-28T01:38:00;27.87;;;20.27;;
12719;SDS011;6424;48.520;11.228;2024-02-28T01:40:47;31.53;;;22.87;;
12719;SDS011;6424;48.520;11.228;2024-02-28T01:43:32;30.60;;;21.90;;
12719;SDS011;6424;48.520;11.228;2024-02-28T01:46:23;32.13;;;22.73;;
12719;SDS011;6424;48.520;11.228;2024-02-28T01:49:09;33.03;;;23.07;;
12719;SDS011;6424;48.520;11.228;2024-02-28T01:51:54;32.47;;;23.37;;
12719;SDS011;6424;48.520;11.228;2024-02-28T01:54:40;32.17;;;21.73;;
12719;SDS011;6424;48.520;11.228;2024-02-28T01:57:25;33.00;;;23.07;;
12719;SDS011;6424;48.520;11.228;2024-02-28T02:00:11;34.80;;;23.07;;
12719;SDS011;6424;48.520;11.228;2024-02-28T02:02:57;32.03;;;22.47;;
12719;SDS011;6424;48.520;11.228;2024-02-28T02:05:41;29.73;;;22.00;;
12719;SDS011;6424;48.520;11.228;2024-02-28T02:08:26;30.60;;;22.27;;
12719;SDS011;6424;48.520;11.228;2024-02-28T02:11:10;30.13;;;20.87;;
12719;SDS011;6424;48.520;11.228;2024-02-28T02:13:56;29.37;;;20.90;;
12719;SDS011;6424;48.520;11.228;2024-02-28T02:16:40;26.10;;;20.80;;
12719;SDS011;6424;48.520;11.228;2024-02-28T02:19:24;31.77;;;22.20;;
12719;SDS011;6424;48.520;11.228;2024-02-28T02:22:09;25.93;;;19.80;;
12719;SDS011;6424;48.520;11.228;2024-02-28T02:24:55;34.87;;;23.80;;
12719;SDS011;6424;48.520;11.228;2024-02-28T02:27:39;33.80;;;23.13;;
12719;SDS011;6424;48.520;11.228;2024-02-28T02:30:23;33.53;;;23.97;;
12719;SDS011;6424;48.520;11.228;2024-02-28T02:33:07;30.80;;;21.03;;
12719;SDS011;6424;48.520;11.228;2024-02-28T02:35:53;35.27;;;24.10;;
12719;SDS011;6424;48.520;11.228;2024-02-28T02:38:37;34.87;;;23.50;;
12719;SDS011;6424;48.520;11.228;2024-02-28T02:41:21;33.73;;;23.03;;
12719;SDS011;6424;48.520;11.228;2024-02-28T02:44:07;33.93;;;24.03;;
12719;SDS011;6424;48.520;11.228;2024-02-28T02:46:52;35.00;;;23.57;;
12719;SDS011;6424;48.520;11.228;2024-02-28T02:49:36;32.67;;;23.30;;
12719;SDS011;6424;48.520;11.228;2024-02-28T02:52:20;33.57;;;23.57;;
12719;SDS011;6424;48.520;11.228;2024-02-28T02:55:04;33.40;;;23.07;;
12719;SDS011;6424;48.520;11.228;2024-02-28T02:57:50;34.93;;;24.27;;
12719;SDS011;6424;48.520;11.228;2024-02-28T03:00:34;31.20;;;22.00;;
12719;SDS011;6424;48.520;11.228;2024-02-28T03:03:18;34.27;;;23.47;;
12719;SDS011;6424;48.520;11.228;2024-02-28T03:06:03;32.67;;;22.67;;
12719;SDS011;6424;48.520;11.228;2024-02-28T03:08:49;34.77;;;24.23;;
12719;SDS011;6424;48.520;11.228;2024-02-28T03:11:33;30.80;;;23.13;;
12719;SDS011;6424;48.520;11.228;2024-02-28T03:14:20;28.97;;;21.07;;
12719;SDS011;6424;48.520;11.228;2024-02-28T03:17:06;31.80;;;22.47;;
12719;SDS011;6424;48.520;11.228;2024-02-28T03:19:50;30.40;;;21.63;;
12719;SDS011;6424;48.520;11.228;2024-02-28T03:22:34;28.40;;;21.37;;
12719;SDS011;6424;48.520;11.228;2024-02-28T03:25:19;29.37;;;21.27;;
12719;SDS011;6424;48.520;11.228;2024-02-28T03:28:03;30.07;;;22.00;;
12719;SDS011;6424;48.520;11.228;2024-02-28T03:30:48;28.87;;;20.20;;
12719;SDS011;6424;48.520;11.228;2024-02-28T03:33:32;29.83;;;21.70;;
12719;SDS011;6424;48.520;11.228;2024-02-28T03:36:18;34.40;;;21.90;;
12719;SDS011;6424;48.520;11.228;2024-02-28T03:39:03;33.80;;;23.80;;
12719;SDS011;6424;48.520;11.228;2024-02-28T03:41:47;32.50;;;22.63;;
12719;SDS011;6424;48.520;11.228;2024-02-28T03:44:31;31.77;;;22.63;;
12719;SDS011;6424;48.520;11.228;2024-02-28T03:47:15;32.77;;;23.63;;
12719;SDS011;6424;48.520;11.228;2024-02-28T03:49:59;28.37;;;21.23;;
12719;SDS011;6424;48.520;11.228;2024-02-28T03:52:47;29.73;;;20.63;;
12719;SDS011;6424;48.520;11.228;2024-02-28T03:55:32;29.63;;;20.17;;
12719;SDS011;6424;48.520;11.228;2024-02-28T03:58:16;28.97;;;21.20;;
12719;SDS011;6424;48.520;11.228;2024-02-28T04:01:01;29.10;;;22.23;;
12719;SDS011;6424;48.520;11.228;2024-02-28T04:03:45;28.70;;;20.67;;
12719;SDS011;6424;48.520;11.228;2024-02-28T04:06:29;31.27;;;22.17;;
12719;SDS011;6424;48.520;11.228;2024-02-28T04:09:14;32.83;;;22.10;;
12719;SDS011;6424;48.520;11.228;2024-02-28T04:11:59;28.57;;;20.23;;
12719;SDS011;6424;48.520;11.228;2024-02-28T04:14:43;28.97;;;19.97;;
12719;SDS011;6424;48.520;11.228;2024-02-28T04:17:27;33.97;;;23.27;;
12719;SDS011;6424;48.520;11.228;2024-02-28T04:20:11;34.40;;;23.63;;
12719;SDS011;6424;48.520;11.228;2024-02-28T04:22:56;31.57;;;22.20;;
12719;SDS011;6424;48.520;11.228;2024-02-28T04:25:41;36.40;;;25.00;;
12719;SDS011;6424;48.520;11.228;2024-02-28T04:28:25;35.10;;;24.30;;
12719;SDS011;6424;48.520;11.228;2024-02-28T04:31:09;40.73;;;26.10;;
12719;SDS011;6424;48.520;11.228;2024-02-28T04:33:54;35.50;;;24.63;;
12719;SDS011;6424;48.520;11.228;2024-02-28T04:36:38;32.90;;;22.80;;
12719;SDS011;6424;48.520;11.228;2024-02-28T04:39:22;33.53;;;22.37;;
12719;SDS011;6424;48.520;11.228;2024-02-28T04:42:06;32.47;;;22.13;;
12719;SDS011;6424;48.520;11.228;2024-02-28T04:44:51;31.47;;;23.47;;
12719;SDS011;6424;48.520;11.228;2024-02-28T04:47:36;35.40;;;24.37;;
12719;SDS011;6424;48.520;11.228;2024-02-28T04:50:20;35.67;;;24.37;;
12719;SDS011;6424;48.520;11.228;2024-02-28T04:53:04;39.07;;;25.47;;
12719;SDS011;6424;48.520;11.228;2024-02-28T04:55:49;40.20;;;25.20;;
12719;SDS011;6424;48.520;11.228;2024-02-28T04:58:35;37.13;;;24.37;;
12719;SDS011;6424;48.520;11.228;2024-02-28T05:01:20;39.30;;;26.63;;
12719;SDS011;6424;48.520;11.228;2024-02-28T05:04:08;37.20;;;24.97;;
12719;SDS011;6424;48.520;11.228;2024-02-28T05:06:53;45.07;;;27.57;;
12719;SDS011;6424;48.520;11.228;2024-02-28T05:09:37;48.27;;;28.27;;
12719;SDS011;6424;48.520;11.228;2024-02-28T05:12:22;47.03;;;28.93;;
12719;SDS011;6424;48.520;11.228;2024-02-28T05:15:06;46.27;;;28.97;;
12719;SDS011;6424;48.520;11.228;2024-02-28T05:17:51;46.10;;;29.47;;
12719;SDS011;6424;48.520;11.228;2024-02-28T05:20:36;50.03;;;29.57;;
12719;SDS011;6424;48.520;11.228;2024-02-28T05:23:20;45.60;;;29.70;;
12719;SDS011;6424;48.520;11.228;2024-02-28T05:26:04;51.77;;;30.33;;
12719;SDS011;6424;48.520;11.228;2024-02-28T05:28:50;52.00;;;29.10;;
12719;SDS011;6424;48.520;11.228;2024-02-28T05:31:34;52.83;;;31.37;;
12719;SDS011;6424;48.520;11.228;2024-02-28T05:34:20;51.70;;;31.87;;
12719;SDS011;6424;48.520;11.228;2024-02-28T05:37:04;53.13;;;31.53;;
12719;SDS011;6424;48.520;11.228;2024-02-28T05:39:49;53.67;;;31.23;;
12719;SDS011;6424;48.520;11.228;2024-02-28T05:42:33;54.77;;;31.47;;
12719;SDS011;6424;48.520;11.228;2024-02-28T05:45:17;58.60;;;33.40;;
12719;SDS011;6424;48.520;11.228;2024-02-28T05:48:01;51.47;;;31.03;;
12719;SDS011;6424;48.520;11.228;2024-02-28T05:50:45;46.93;;;29.50;;
12719;SDS011;6424;48.520;11.228;2024-02-28T05:53:30;52.00;;;31.83;;
12719;SDS011;6424;48.520;11.228;2024-02-28T05:56:16;54.17;;;31.90;;
12719;SDS011;6424;48.520;11.228;2024-02-28T05:59:03;51.43;;;31.43;;
12719;SDS011;6424;48.520;11.228;2024-02-28T06:01:48;50.20;;;31.53;;
12719;SDS011;6424;48.520;11.228;2024-02-28T06:04:32;49.57;;;29.33;;
12719;SDS011;6424;48.520;11.228;2024-02-28T06:07:16;46.33;;;28.67;;
12719;SDS011;6424;48.520;11.228;2024-02-28T06:10:00;51.90;;;30.83;;
12719;SDS011;6424;48.520;11.228;2024-02-28T06:12:44;43.53;;;27.23;;
12719;SDS011;6424;48.520;11.228;2024-02-28T06:15:28;50.60;;;29.70;;
12719;SDS011;6424;48.520;11.228;2024-02-28T06:18:13;51.67;;;31.90;;
12719;SDS011;6424;48.520;11.228;2024-02-28T06:20:57;54.60;;;31.27;;
12719;SDS011;6424;48.520;11.228;2024-02-28T06:23:42;56.43;;;32.60;;
12719;SDS011;6424;48.520;11.228;2024-02-28T06:26:26;51.53;;;31.87;;
12719;SDS011;6424;48.520;11.228;2024-02-28T06:29:11;54.23;;;31.73;;
12719;SDS011;6424;48.520;11.228;2024-02-28T06:31:55;56.10;;;31.07;;
12719;SDS011;6424;48.520;11.228;2024-02-28T06:34:40;52.83;;;29.77;;
12719;SDS011;6424;48.520;11.228;2024-02-28T06:37:25;47.70;;;29.67;;
12719;SDS011;6424;48.520;11.228;2024-02-28T06:40:10;47.37;;;28.93;;
12719;SDS011;6424;48.520;11.228;2024-02-28T06:42:54;48.10;;;29.60;;
12719;SDS011;6424;48.520;11.228;2024-02-28T06:45:38;43.33;;;27.57;;
12719;SDS011;6424;48.520;11.228;2024-02-28T06:48:22;50.87;;;31.93;;
12719;SDS011;6424;48.520;11.228;2024-02-28T06:51:07;47.43;;;29.03;;
12719;SDS011;6424;48.520;11.228;2024-02-28T06:53:51;45.33;;;27.80;;
12719;SDS011;6424;48.520;11.228;2024-02-28T06:56:35;48.33;;;30.47;;
12719;SDS011;6424;48.520;11.228;2024-02-28T06:59:20;50.43;;;29.33;;
12719;SDS011;6424;48.520;11.228;2024-02-28T07:02:04;46.97;;;29.73;;
12719;SDS011;6424;48.520;11.228;2024-02-28T07:04:49;49.07;;;30.47;;
12719;SDS011;6424;48.520;11.228;2024-02-28T07:07:33;49.07;;;31.20;;
12719;SDS011;6424;48.520;11.228;2024-02-28T07:10:17;46.07;;;29.70;;
12719;SDS011;6424;48.520;11.228;2024-02-28T07:13:02;45.97;;;29.20;;
12719;SDS011;6424;48.520;11.228;2024-02-28T07:15:47;49.43;;;30.77;;
12719;SDS011;6424;48.520;11.228;2024-02-28T07:18:32;50.43;;;29.90;;
12719;SDS011;6424;48.520;11.228;2024-02-28T07:21:17;48.43;;;30.70;;
12719;SDS011;6424;48.520;11.228;2024-02-28T07:24:01;55.27;;;30.80;;
12719;SDS011;6424;48.520;11.228;2024-02-28T07:26:46;47.33;;;29.40;;
12719;SDS011;6424;48.520;11.228;2024-02-28T07:29:32;48.43;;;28.67;;
12719;SDS011;6424;48.520;11.228;2024-02-28T07:32:18;48.90;;;30.07;;
12719;SDS011;6424;48.520;11.228;2024-02-28T07:35:02;45.73;;;28.40;;
12719;SDS011;6424;48.520;11.228;2024-02-28T07:37:46;51.57;;;29.87;;
12719;SDS011;6424;48.520;11.228;2024-02-28T07:40:31;46.80;;;28.37;;
12719;SDS011;6424;48.520;11.228;2024-02-28T07:43:15;47.17;;;30.03;;
12719;SDS011;6424;48.520;11.228;2024-02-28T07:45:59;48.33;;;29.47;;
12719;SDS011;6424;48.520;11.228;2024-02-28T07:48:43;52.17;;;30.63;;
12719;SDS011;6424;48.520;11.228;2024-02-28T07:51:28;51.13;;;30.37;;
12719;SDS011;6424;48.520;11.228;2024-02-28T07:54:12;44.30;;;29.43;;
12719;SDS011;6424;48.520;11.228;2024-02-28T07:56:57;48.83;;;31.10;;
12719;SDS011;6424;48.520;11.228;2024-02-28T07:59:41;50.00;;;30.37;;
12719;SDS011;6424;48.520;11.228;2024-02-28T08:02:26;47.57;;;30.63;;
12719;SDS011;6424;48.520;11.228;2024-02-28T08:05:10;47.47;;;30.23;;
12719;SDS011;6424;48.520;11.228;2024-02-28T08:07:55;51.67;;;31.03;;
12719;SDS011;6424;48.520;11.228;2024-02-28T08:10:39;56.03;;;31.53;;
12719;SDS011;6424;48.520;11.228;2024-02-28T08:13:24;50.47;;;29.83;;
12719;SDS011;6424;48.520;11.228;2024-02-28T08:16:12;52.60;;;31.70;;
12719;SDS011;6424;48.520;11.228;2024-02-28T08:18:56;51.37;;;30.90;;
12719;SDS011;6424;48.520;11.228;2024-02-28T08:21:40;51.53;;;30.67;;
12719;SDS011;6424;48.520;11.228;2024-02-28T08:24:24;56.70;;;32.43;;
12719;SDS011;6424;48.520;11.228;2024-02-28T08:27:09;53.03;;;30.83;;
12719;SDS011;6424;48.520;11.228;2024-02-28T08:29:53;52.27;;;31.30;;
12719;SDS011;6424;48.520;11.228;2024-02-28T08:32:38;56.17;;;31.97;;
12719;SDS011;6424;48.520;11.228;2024-02-28T08:35:22;52.57;;;31.30;;
12719;SDS011;6424;48.520;11.228;2024-02-28T08:38:07;51.33;;;30.90;;
12719;SDS011;6424;48.520;11.228;2024-02-28T08:40:51;49.53;;;31.37;;
12719;SDS011;6424;48.520;11.228;2024-02-28T08:43:39;51.33;;;31.83;;
12719;SDS011;6424;48.520;11.228;2024-02-28T08:46:23;53.87;;;32.07;;
12719;SDS011;6424;48.520;11.228;2024-02-28T08:49:08;54.57;;;32.03;;
12719;SDS011;6424;48.520;11.228;2024-02-28T08:51:52;50.27;;;31.53;;
12719;SDS011;6424;48.520;11.228;2024-02-28T08:54:36;57.17;;;31.80;;
12719;SDS011;6424;48.520;11.228;2024-02-28T08:57:21;48.70;;;30.13;;
12719;SDS011;6424;48.520;11.228;2024-02-28T09:00:07;55.00;;;30.37;;
12719;SDS011;6424;48.520;11.228;2024-02-28T09:02:52;55.07;;;32.07;;
12719;SDS011;6424;48.520;11.228;2024-02-28T09:05:37;54.67;;;30.70;;
12719;SDS011;6424;48.520;11.228;2024-02-28T09:08:21;54.83;;;31.23;;
12719;SDS011;6424;48.520;11.228;2024-02-28T09:11:06;52.03;;;30.53;;
12719;SDS011;6424;48.520;11.228;2024-02-28T09:13:51;52.30;;;30.63;;
12719;SDS011;6424;48.520;11.228;2024-02-28T09:16:35;51.97;;;29.97;;
12719;SDS011;6424;48.520;11.228;2024-02-28T09:19:20;55.13;;;32.27;;
12719;SDS011;6424;48.520;11.228;2024-02-28T09:22:04;54.47;;;31.67;;
12719;SDS011;6424;48.520;11.228;2024-02-28T09:24:49;54.93;;;33.10;;
12719;SDS011;6424;48.520;11.228;2024-02-28T09:27:33;56.30;;;33.47;;
12719;SDS011;6424;48.520;11.228;2024-02-28T09:30:17;55.07;;;33.87;;
12719;SDS011;6424;48.520;11.228;2024-02-28T09:33:01;60.80;;;32.67;;
12719;SDS011;6424;48.520;11.228;2024-02-28T09:35:46;56.13;;;32.40;;
12719;SDS011;6424;48.520;11.228;2024-02-28T09:38:31;54.33;;;31.67;;
12719;SDS011;6424;48.520;11.228;2024-02-28T09:41:16;51.97;;;31.57;;
12719;SDS011;6424;48.520;11.228;2024-02-28T09:44:02;54.13;;;32.03;;
12719;SDS011;6424;48.520;11.228;2024-02-28T09:46:46;53.23;;;31.40;;
12719;SDS011;6424;48.520;11.228;2024-02-28T09:49:34;63.30;;;33.97;;
12719;SDS011;6424;48.520;11.228;2024-02-28T09:52:20;53.23;;;30.87;;
12719;SDS011;6424;48.520;11.228;2024-02-28T09:55:05;56.50;;;32.03;;
12719;SDS011;6424;48.520;11.228;2024-02-28T09:57:50;53.63;;;31.33;;
12719;SDS011;6424;48.520;11.228;2024-02-28T10:00:36;50.83;;;30.70;;
12719;SDS011;6424;48.520;11.228;2024-02-28T10:03:21;50.40;;;29.63;;
12719;SDS011;6424;48.520;11.228;2024-02-28T10:06:07;50.77;;;31.17;;
12719;SDS011;6424;48.520;11.228;2024-02-28T10:08:51;52.63;;;29.57;;
12719;SDS011;6424;48.520;11.228;2024-02-28T10:11:37;44.30;;;28.47;;
12719;SDS011;6424;48.520;11.228;2024-02-28T10:14:21;47.93;;;30.80;;
12719;SDS011;6424;48.520;11.228;2024-02-28T10:17:05;51.20;;;29.93;;
12719;SDS011;6424;48.520;11.228;2024-02-28T10:19:52;47.67;;;28.93;;
12719;SDS011;6424;48.520;11.228;2024-02-28T10:22:36;44.30;;;28.00;;
12719;SDS011;6424;48.520;11.228;2024-02-28T10:25:21;43.20;;;28.60;;
12719;SDS011;6424;48.520;11.228;2024-02-28T10:28:05;47.40;;;29.60;;
12719;SDS011;6424;48.520;11.228;2024-02-28T10:30:49;43.50;;;27.80;;
12719;SDS011;6424;48.520;11.228;2024-02-28T10:33:34;49.07;;;29.83;;
12719;SDS011;6424;48.520;11.228;2024-02-28T10:36:19;47.27;;;28.03;;
12719;SDS011;6424;48.520;11.228;2024-02-28T10:39:04;48.77;;;29.77;;
12719;SDS011;6424;48.520;11.228;2024-02-28T10:41:50;44.87;;;27.93;;
12719;SDS011;6424;48.520;11.228;2024-02-28T10:44:36;44.93;;;28.77;;
12719;SDS011;6424;48.520;11.228;2024-02-28T10:47:22;49.97;;;30.10;;
12719;SDS011;6424;48.520;11.228;2024-02-28T10:50:08;47.67;;;29.67;;
12719;SDS011;6424;48.520;11.228;2024-02-28T10:52:52;44.37;;;28.57;;
12719;SDS011;6424;48.520;11.228;2024-02-28T10:55:41;46.73;;;28.17;;
12719;SDS011;6424;48.520;11.228;2024-02-28T10:58:30;47.37;;;28.87;;
12719;SDS011;6424;48.520;11.228;2024-02-28T11:01:22;46.80;;;28.93;;
12719;SDS011;6424;48.520;11.228;2024-02-28T11:04:07;45.97;;;28.13;;
12719;SDS011;6424;48.520;11.228;2024-02-28T11:06:54;43.90;;;27.53;;
12719;SDS011;6424;48.520;11.228;2024-02-28T11:09:40;40.90;;;25.67;;
12719;SDS011;6424;48.520;11.228;2024-02-28T11:12:28;42.50;;;25.73;;
12719;SDS011;6424;48.520;11.228;2024-02-28T11:15:16;44.00;;;26.47;;
12719;SDS011;6424;48.520;11.228;2024-02-28T11:18:07;42.90;;;28.10;;
12719;SDS011;6424;48.520;11.228;2024-02-28T11:20:53;42.30;;;26.67;;
12719;SDS011;6424;48.520;11.228;2024-02-28T11:23:38;43.47;;;27.40;;
12719;SDS011;6424;48.520;11.228;2024-02-28T11:26:22;40.63;;;25.97;;
12719;SDS011;6424;48.520;11.228;2024-02-28T11:29:07;45.37;;;28.50;;
12719;SDS011;6424;48.520;11.228;2024-02-28T11:31:52;45.10;;;28.37;;
12719;SDS011;6424;48.520;11.228;2024-02-28T11:34:37;42.97;;;26.93;;
12719;SDS011;6424;48.520;11.228;2024-02-28T11:37:24;42.47;;;26.20;;
12719;SDS011;6424;48.520;11.228;2024-02-28T11:40:08;41.93;;;25.70;;
12719;SDS011;6424;48.520;11.228;2024-02-28T11:42:56;37.80;;;24.87;;
12719;SDS011;6424;48.520;11.228;2024-02-28T11:45:43;38.20;;;25.67;;
12719;SDS011;6424;48.520;11.228;2024-02-28T11:48:27;42.33;;;25.70;;
12719;SDS011;6424;48.520;11.228;2024-02-28T11:51:12;41.13;;;26.53;;
12719;SDS011;6424;48.520;11.228;2024-02-28T11:53:56;44.87;;;28.93;;
12719;SDS011;6424;48.520;11.228;2024-02-28T11:56:40;39.90;;;25.03;;
12719;SDS011;6424;48.520;11.228;2024-02-28T11:59:25;39.17;;;25.70;;
12719;SDS011;6424;48.520;11.228;2024-02-28T12:02:13;41.00;;;26.60;;
12719;SDS011;6424;48.520;11.228;2024-02-28T12:05:04;43.07;;;26.47;;
12719;SDS011;6424;48.520;11.228;2024-02-28T12:07:49;38.63;;;27.10;;
12719;SDS011;6424;48.520;11.228;2024-02-28T12:10:34;41.90;;;26.80;;
12719;SDS011;6424;48.520;11.228;2024-02-28T12:13:19;51.33;;;29.60;;
12719;SDS011;6424;48.520;11.228;2024-02-28T12:16:04;50.80;;;29.63;;
12719;SDS011;6424;48.520;11.228;2024-02-28T12:18:51;47.77;;;29.73;;
12719;SDS011;6424;48.520;11.228;2024-02-28T12:21:39;50.33;;;28.73;;
12719;SDS011;6424;48.520;11.228;2024-02-28T12:24:23;49.87;;;28.83;;
12719;SDS011;6424;48.520;11.228;2024-02-28T12:27:08;52.63;;;31.47;;
12719;SDS011;6424;48.520;11.228;2024-02-28T12:29:52;51.80;;;29.57;;
12719;SDS011;6424;48.520;11.228;2024-02-28T12:32:36;49.47;;;29.87;;
12719;SDS011;6424;48.520;11.228;2024-02-28T12:35:20;46.93;;;28.90;;
12719;SDS011;6424;48.520;11.228;2024-02-28T12:38:04;53.00;;;30.63;;
12719;SDS011;6424;48.520;11.228;2024-02-28T12:40:49;48.70;;;29.27;;
12719;SDS011;6424;48.520;11.228;2024-02-28T12:43:33;47.40;;;29.03;;
12719;SDS011;6424;48.520;11.228;2024-02-28T12:46:18;47.50;;;28.33;;
12719;SDS011;6424;48.520;11.228;2024-02-28T12:49:03;44.20;;;27.80;;
12719;SDS011;6424;48.520;11.228;2024-02-28T12:51:47;48.83;;;27.57;;
12719;SDS011;6424;48.520;11.228;2024-02-28T12:54:32;42.63;;;27.00;;
12719;SDS011;6424;48.520;11.228;2024-02-28T12:57:16;48.53;;;27.97;;
12719;SDS011;6424;48.520;11.228;2024-02-28T13:00:01;44.33;;;27.43;;
12719;SDS011;6424;48.520;11.228;2024-02-28T13:02:45;53.97;;;29.00;;
12719;SDS011;6424;48.520;11.228;2024-02-28T13:05:30;48.50;;;29.23;;
12719;SDS011;6424;48.520;11.228;2024-02-28T13:08:15;39.90;;;25.43;;
12719;SDS011;6424;48.520;11.228;2024-02-28T13:10:59;42.77;;;26.30;;
12719;SDS011;6424;48.520;11.228;2024-02-28T13:13:44;47.80;;;26.63;;
12719;SDS011;6424;48.520;11.228;2024-02-28T13:16:29;43.30;;;26.63;;
12719;SDS011;6424;48.520;11.228;2024-02-28T13:19:13;40.23;;;25.63;;
12719;SDS011;6424;48.520;11.228;2024-02-28T13:21:58;39.90;;;25.63;;
12719;SDS011;6424;48.520;11.228;2024-02-28T13:24:42;42.00;;;25.43;;
12719;SDS011;6424;48.520;11.228;2024-02-28T13:27:26;39.63;;;24.90;;
12719;SDS011;6424;48.520;11.228;2024-02-28T13:30:10;40.70;;;26.00;;
12719;SDS011;6424;48.520;11.228;2024-02-28T13:32:56;42.60;;;25.87;;
12719;SDS011;6424;48.520;11.228;2024-02-28T13:35:40;40.57;;;25.23;;
12719;SDS011;6424;48.520;11.228;2024-02-28T13:38:24;41.17;;;26.00;;
12719;SDS011;6424;48.520;11.228;2024-02-28T13:41:09;36.37;;;23.67;;
12719;SDS011;6424;48.520;11.228;2024-02-28T13:43:53;39.87;;;25.90;;
12719;SDS011;6424;48.520;11.228;2024-02-28T13:46:37;37.43;;;23.97;;
12719;SDS011;6424;48.520;11.228;2024-02-28T13:49:24;36.07;;;21.77;;
12719;SDS011;6424;48.520;11.228;2024-02-28T13:52:08;45.27;;;25.90;;
12719;SDS011;6424;48.520;11.228;2024-02-28T13:54:53;37.87;;;25.87;;
12719;SDS011;6424;48.520;11.228;2024-02-28T13:57:38;38.27;;;26.80;;
12719;SDS011;6424;48.520;11.228;2024-02-28T14:00:22;37.23;;;23.83;;
12719;SDS011;6424;48.520;11.228;2024-02-28T14:03:07;35.00;;;23.87;;
12719;SDS011;6424;48.520;11.228;2024-02-28T14:05:51;33.03;;;22.80;;
12719;SDS011;6424;48.520;11.228;2024-02-28T14:08:36;35.37;;;22.40;;
12719;SDS011;6424;48.520;11.228;2024-02-28T14:11:20;35.57;;;23.83;;
12719;SDS011;6424;48.520;11.228;2024-02-28T14:14:05;37.10;;;24.43;;
12719;SDS011;6424;48.520;11.228;2024-02-28T14:16:51;36.30;;;23.43;;
12719;SDS011;6424;48.520;11.228;2024-02-28T14:19:35;34.53;;;23.23;;
12719;SDS011;6424;48.520;11.228;2024-02-28T14:22:19;33.63;;;22.33;;
12719;SDS011;6424;48.520;11.228;2024-02-28T14:25:03;30.97;;;21.33;;
12719;SDS011;6424;48.520;11.228;2024-02-28T14:27:48;38.30;;;25.20;;
12719;SDS011;6424;48.520;11.228;2024-02-28T14:30:32;32.17;;;22.60;;
12719;SDS011;6424;48.520;11.228;2024-02-28T14:33:17;33.90;;;23.13;;
12719;SDS011;6424;48.520;11.228;2024-02-28T14:36:02;30.70;;;21.27;;
12719;SDS011;6424;48.520;11.228;2024-02-28T14:38:50;33.43;;;22.57;;
12719;SDS011;6424;48.520;11.228;2024-02-28T14:41:35;34.43;;;23.37;;
12719;SDS011;6424;48.520;11.228;2024-02-28T14:44:19;31.60;;;22.73;;
12719;SDS011;6424;48.520;11.228;2024-02-28T14:47:03;32.40;;;22.83;;
12719;SDS011;6424;48.520;11.228;2024-02-28T14:49:48;33.80;;;23.27;;
12719;SDS011;6424;48.520;11.228;2024-02-28T14:52:33;35.53;;;23.93;;
12719;SDS011;6424;48.520;11.228;2024-02-28T14:55:17;33.73;;;23.43;;
12719;SDS011;6424;48.520;11.228;2024-02-28T14:58:01;33.53;;;22.87;;
12719;SDS011;6424;48.520;11.228;2024-02-28T15:00:46;36.13;;;25.07;;
12719;SDS011;6424;48.520;11.228;2024-02-28T15:03:32;34.03;;;22.87;;
12719;SDS011;6424;48.520;11.228;2024-02-28T15:06:16;35.63;;;23.67;;
12719;SDS011;6424;48.520;11.228;2024-02-28T15:09:00;38.10;;;22.33;;
12719;SDS011;6424;48.520;11.228;2024-02-28T15:11:49;35.03;;;22.30;;
12719;SDS011;6424;48.520;11.228;2024-02-28T15:14:33;34.90;;;23.80;;
12719;SDS011;6424;48.520;11.228;2024-02-28T15:17:17;36.77;;;25.40;;
12719;SDS011;6424;48.520;11.228;2024-02-28T15:20:01;35.73;;;24.50;;
12719;SDS011;6424;48.520;11.228;2024-02-28T15:22:51;34.67;;;24.00;;
12719;SDS011;6424;48.520;11.228;2024-02-28T15:25:35;37.07;;;24.10;;
12719;SDS011;6424;48.520;11.228;2024-02-28T15:28:20;34.33;;;23.10;;
12719;SDS011;6424;48.520;11.228;2024-02-28T15:31:07;35.00;;;24.43;;
12719;SDS011;6424;48.520;11.228;2024-02-28T15:33:51;34.17;;;22.80;;
12719;SDS011;6424;48.520;11.228;2024-02-28T15:36:36;31.53;;;22.03;;
12719;SDS011;6424;48.520;11.228;2024-02-28T15:39:21;31.80;;;22.00;;
12719;SDS011;6424;48.520;11.228;2024-02-28T15:42:05;31.27;;;22.00;;
12719;SDS011;6424;48.520;11.228;2024-02-28T15:44:50;35.07;;;23.43;;
12719;SDS011;6424;48.520;11.228;2024-02-28T15:47:34;38.57;;;24.57;;
12719;SDS011;6424;48.520;11.228;2024-02-28T15:50:18;36.90;;;23.93;;
12719;SDS011;6424;48.520;11.228;2024-02-28T15:53:03;37.20;;;24.63;;
12719;SDS011;6424;48.520;11.228;2024-02-28T15:55:48;36.33;;;24.63;;
12719;SDS011;6424;48.520;11.228;2024-02-28T15:58:32;34.97;;;24.50;;
12719;SDS011;6424;48.520;11.228;2024-02-28T16:01:17;33.33;;;23.70;;
12719;SDS011;6424;48.520;11.228;2024-02-28T16:04:01;34.93;;;24.07;;